GTT weather

Ganadería Airport
Honda, Tolima Department, Colombia

Public forecast

Using degrees Celsius for public forecast. Weather courtesy of forecast.io.

Closest aviation weather report (METAR) to Ganadería Airport

Report is more than 6 hours old.

Closest report is Mariquita Airport, 7.6 nm (14.0 km) WNW. Retrieved 2019/12/03 11:00 UTC (2 months ago):

SKQU 031100Z VRB02KT 8000 BKN040 XX/XX A2988 RMK HZ

Closest aviation forecast (TAF) to Ganadería Airport

Closest forecast is El Dorado International Airport, 46.4 nm (86.0 km) SE. Retrieved 2020-01-18 00:30 UTC (2 hours ago):

TAF SKBO 172230Z 1800/1824 05005KT 9999 SCT016 SCT070 BECMG 1815/1817 13010KT TX20/1818Z TN07/1811Z